This is the latest recevied weather packets stored in our database for station/object VA7NEZ. If no packets are shown the sender has not sent any weather packets the latest 10 day(s).
| Time | Temp. | Humidity | Pressure | Rain* | Wind** | Luminosity | Snow |
|---|---|---|---|---|---|---|---|
| 1777490131 | 17.22° C | 45% | 1023.5 hPa | 0 mm | - | - | - |
| 1777489646 | 16.67° C | 45% | 1023.7 hPa | 0 mm | - | - | - |
| 1777485946 | 14.44° C | 50% | 1024.5 hPa | 0 mm | - | - | - |
| 1777484871 | 13.89° C | 53% | 1024.7 hPa | 0 mm | - | - | - |
| 1777484287 | 13.33° C | 53% | 1024.8 hPa | 0 mm | - | - | - |
| 1777483721 | 12.78° C | 54% | 1024.9 hPa | 0 mm | - | - | - |
| 1777482711 | 12.78° C | 56% | 1025.1 hPa | 0 mm | - | - | - |
| 1777480476 | 11.67° C | 63% | 1025.2 hPa | 0 mm | - | - | - |
| 1777479951 | 0° C | 100% | 1025.3 hPa | 0 mm | - | - | - |
| 1777479437 | 0° C | 100% | 1025.4 hPa | 0 mm | - | - | - |
| 1777478947 | 10.56° C | 66% | 1025.6 hPa | 0 mm | - | - | - |
| 1777476846 | 9.44° C | 68% | 1025.4 hPa | 0 mm | - | - | - |
| 1777473531 | 0° C | 100% | 1025.3 hPa | 0 mm | - | - | - |
| 1777471361 | 5° C | 79% | 1025.1 hPa | 0 mm | - | - | - |
| 1777469721 | 0° C | 100% | 1024.7 hPa | 0 mm | - | - | - |
| 1777469166 | 3.89° C | 79% | 1024.5 hPa | 0 mm | - | - | - |
| 1777468576 | 3.89° C | 81% | 1024.4 hPa | 0 mm | - | - | - |
| 1777467986 | 3.89° C | 81% | 1024.4 hPa | 0 mm | - | - | - |
| 1777467542 | 0° C | 100% | 1024.3 hPa | 0 mm | - | - | - |
| 1777467470 | 0° C | 100% | 1024.3 hPa | 0 mm | - | - | - |
| 1777465981 | 0° C | 100% | 1024.2 hPa | 0 mm | - | - | - |
| 1777465416 | 3.89° C | 79% | 1024.2 hPa | 0 mm | - | - | - |
| 1777464830 | 3.89° C | 77% | 1023.9 hPa | 0 mm | - | - | - |
| 1777464245 | 4.44° C | 79% | 1023.8 hPa | 0 mm | - | - | - |
| 1777463731 | 4.44° C | 76% | 1023.9 hPa | 0 mm | - | - | - |
* Rain latest hour (hover to see other rain measurements)
** Current wind speed in m/s (hover to see current wind gust speed)